Time;durP1;ratioP1;P1;durP2;ratioP2;P2;SDS_P1;SDS_P2;PMS_P1;PMS_P2;Temp;Humidity;BMP_temperature;BMP_pressure;BME280_temperature;BME280_humidity;BME280_pressure;Samples;Min_cycle;Max_cycle;Signal;HPM_P1;HPM_P2
2022/01/26 00:00:02;;;;;;;;;;;0.40;99.90;1.10;101121.00;;;;347040;28;91430;-91
2022/01/26 00:00:20;;;;;;;;;;;0.40;99.90;1.20;101121.00;;;;350068;27;83530;-91
2022/01/26 00:06:01;;;;;;;;;;;0.40;99.90;1.10;101120.00;;;;344650;28;82396;-91
2022/01/26 00:06:24;;;;;;;;;;;0.40;99.90;1.00;101126.00;;;;342645;28;92900;-91
2022/01/26 00:06:37;;;;;;;;;;;0.40;99.90;1.10;101119.00;;;;344067;28;83466;-92
2022/01/26 00:06:49;;;;;;;;;;;0.40;99.90;1.10;101110.00;;;;345289;28;90484;-92
2022/01/26 00:07:01;;;;;;;;;;;0.40;99.90;1.00;101118.00;;;;342864;28;82760;-92
2022/01/26 00:07:12;;;;;;;;;;;0.40;99.90;1.00;101127.00;;;;340045;28;89343;-91
2022/01/26 00:07:24;;;;;;;;;;;0.40;99.90;0.90;101123.00;;;;343211;28;83431;-92
2022/01/26 00:07:36;;;;;;;;;;;0.40;99.90;0.80;101116.00;;;;341310;28;91388;-92
2022/01/26 00:07:48;;;;;;;;;;;0.40;99.90;0.90;101120.00;;;;344679;28;83659;-92
2022/01/26 00:08:00;;;;;;;;;;;0.40;99.90;1.00;101130.00;;;;342925;28;91278;-92
2022/01/26 00:08:12;;;;;;;;;;;0.40;99.90;1.10;101120.00;;;;340446;28;83438;-91
2022/01/26 00:08:25;;;;;;;;;;;0.30;99.90;1.10;101122.00;;;;341556;28;92150;-92
2022/01/26 00:08:37;;;;;;;;;;;0.40;99.90;1.10;101121.00;;;;341950;28;82549;-92
2022/01/26 00:08:49;;;;;;;;;;;0.40;99.90;1.10;101112.00;;;;342781;28;91795;-92
2022/01/26 00:09:01;;;;;;;;;;;0.40;99.90;1.00;101117.00;;;;340629;28;82406;-92
2022/01/26 00:09:13;;;;;;;;;;;0.40;99.90;0.90;101115.00;;;;340123;28;90404;-92
2022/01/26 00:09:26;;;;;;;;;;;0.40;99.90;1.00;101120.00;;;;341577;28;83457;-92
2022/01/26 00:09:38;;;;;;;;;;;0.40;99.90;1.00;101113.00;;;;342522;28;91701;-91
2022/01/26 00:09:50;;;;;;;;;;;0.30;99.90;0.90;101113.00;;;;344544;28;83591;-92
2022/01/26 00:10:03;;;;;;;;;;;0.30;99.90;0.90;101112.00;;;;342752;28;90186;-92
2022/01/26 00:10:15;;;;;;;;;;;0.30;99.90;0.90;101118.00;;;;342440;28;83269;-92
2022/01/26 00:10:40;;;;;;;;;;;0.30;99.90;1.00;101114.00;;;;340417;28;90604;-92
2022/01/26 00:10:53;;;;;;;;;;;0.30;99.90;1.10;101116.00;;;;343136;28;83409;-91
2022/01/26 00:11:05;;;;;;;;;;;0.30;99.90;1.10;101111.00;;;;341627;28;91499;-91
2022/01/26 00:11:17;;;;;;;;;;;0.40;99.90;1.10;101117.00;;;;343218;28;83567;-92
2022/01/26 00:11:31;;;;;;;;;;;0.40;99.90;1.10;101116.00;;;;342889;28;90717;-92
2022/01/26 00:11:43;;;;;;;;;;;0.40;99.90;1.10;101125.00;;;;343397;28;82388;-91
2022/01/26 00:11:55;;;;;;;;;;;0.40;99.90;1.20;101114.00;;;;341539;28;91193;-91
2022/01/26 00:12:09;;;;;;;;;;;0.40;99.90;1.10;101122.00;;;;342084;28;82400;-92
2022/01/26 00:12:21;;;;;;;;;;;0.40;99.90;1.00;101117.00;;;;342856;28;90126;-91
2022/01/26 00:12:32;;;;;;;;;;;0.40;99.90;1.00;101114.00;;;;343430;28;83456;-91
2022/01/26 00:12:44;;;;;;;;;;;0.40;99.90;1.00;101119.00;;;;344125;28;92536;-91
2022/01/26 00:12:56;;;;;;;;;;;0.40;99.90;1.00;101117.00;;;;344620;28;83418;-92
2022/01/26 00:13:08;;;;;;;;;;;0.40;99.90;1.00;101116.00;;;;340282;28;90426;-92
2022/01/26 00:13:19;;;;;;;;;;;0.40;99.90;1.10;101104.00;;;;343313;28;83431;-92
2022/01/26 00:13:31;;;;;;;;;;;0.40;99.90;1.10;101113.00;;;;341628;28;91471;-92
2022/01/26 00:13:43;;;;;;;;;;;0.40;99.90;1.10;101120.00;;;;340638;28;83286;-92
2022/01/26 00:13:55;;;;;;;;;;;0.40;99.90;1.10;101112.00;;;;339991;28;90704;-92
2022/01/26 00:14:13;;;;;;;;;;;0.40;99.90;1.10;101111.00;;;;341940;28;83366;-92
2022/01/26 00:14:27;;;;;;;;;;;0.40;99.90;1.00;101117.00;;;;344012;28;90352;-91
2022/01/26 00:14:41;;;;;;;;;;;0.40;99.90;0.90;101118.00;;;;340574;28;83372;-92
2022/01/26 00:14:53;;;;;;;;;;;0.30;99.90;1.00;101113.00;;;;342741;28;92237;-92
2022/01/26 00:15:05;;;;;;;;;;;0.40;99.90;1.00;101112.00;;;;343376;28;82655;-92
2022/01/26 00:15:17;;;;;;;;;;;0.40;99.90;1.10;101114.00;;;;338813;28;91724;-92
2022/01/26 00:15:31;;;;;;;;;;;0.40;99.90;0.90;101119.00;;;;343415;28;83429;-92
2022/01/26 00:15:42;;;;;;;;;;;0.40;99.90;0.80;101113.00;;;;342451;28;91454;-92
2022/01/26 00:15:56;;;;;;;;;;;0.30;99.90;0.80;101119.00;;;;341872;28;83461;-92
2022/01/26 00:16:15;;;;;;;;;;;0.30;99.90;0.90;101117.00;;;;342825;28;91532;-92
2022/01/26 00:16:35;;;;;;;;;;;0.30;99.90;1.00;101118.00;;;;345885;28;82537;-92
2022/01/26 00:16:47;;;;;;;;;;;0.30;99.90;1.00;101116.00;;;;346944;27;91512;-92
2022/01/26 00:17:01;;;;;;;;;;;0.30;99.90;1.00;101113.00;;;;341962;28;83399;-92
2022/01/26 00:17:12;;;;;;;;;;;0.30;99.90;0.90;101117.00;;;;338721;28;90506;-92
2022/01/26 00:17:24;;;;;;;;;;;0.40;99.90;0.80;101120.00;;;;344686;28;83346;-92
2022/01/26 00:17:36;;;;;;;;;;;0.30;99.90;0.80;101118.00;;;;345541;28;91412;-92
2022/01/26 00:17:50;;;;;;;;;;;0.30;99.90;0.70;101116.00;;;;340571;28;83136;-92
2022/01/26 00:18:02;;;;;;;;;;;0.30;99.90;0.90;101112.00;;;;342873;28;91593;-92
2022/01/26 00:18:15;;;;;;;;;;;0.30;99.90;1.00;101120.00;;;;344599;28;83478;-91
2022/01/26 00:18:31;;;;;;;;;;;0.30;99.90;1.10;101116.00;;;;342768;28;90206;-92
2022/01/26 00:18:42;;;;;;;;;;;0.30;99.90;1.20;101113.00;;;;344237;28;83571;-92
2022/01/26 00:18:59;;;;;;;;;;;0.30;99.90;1.20;101115.00;;;;343911;28;90318;-92
2022/01/26 00:19:16;;;;;;;;;;;0.30;99.90;1.20;101112.00;;;;344560;28;82520;-92
2022/01/26 00:19:43;;;;;;;;;;;0.40;99.90;1.20;101106.00;;;;344165;28;91338;-92
2022/01/26 00:20:09;;;;;;;;;;;0.40;99.90;1.10;101116.00;;;;344640;28;82532;-90
2022/01/26 00:20:26;;;;;;;;;;;0.40;99.90;0.90;101117.00;;;;341528;28;90853;-91
2022/01/26 00:20:46;;;;;;;;;;;0.40;99.90;0.90;101118.00;;;;340675;28;83302;-92
2022/01/26 00:21:06;;;;;;;;;;;0.40;99.90;1.10;101111.00;;;;342844;28;91365;-92
2022/01/26 00:21:28;;;;;;;;;;;0.30;99.90;1.00;101113.00;;;;346060;28;83320;-91
2022/01/26 00:21:48;;;;;;;;;;;0.40;99.90;0.90;101122.00;;;;342732;28;91500;-91
2022/01/26 00:22:00;;;;;;;;;;;0.30;99.90;0.80;101118.00;;;;340747;28;83199;-92
2022/01/26 00:22:22;;;;;;;;;;;0.30;99.90;0.90;101116.00;;;;344045;28;91564;-91
2022/01/26 00:23:18;;;;;;;;;;;0.30;99.90;0.80;101103.00;;;;343274;28;82711;-91
2022/01/26 00:25:06;;;;;;;;;;;0.30;99.90;1.10;101105.00;;;;343235;28;91696;-91
2022/01/26 00:25:58;;;;;;;;;;;0.30;99.90;1.00;101111.00;;;;341168;28;91709;-92
2022/01/26 00:26:25;;;;;;;;;;;0.30;99.90;1.10;101118.00;;;;343222;28;83250;-92
2022/01/26 00:27:02;;;;;;;;;;;0.30;99.90;1.20;101110.00;;;;344114;28;91539;-92
2022/01/26 00:27:30;;;;;;;;;;;0.40;99.90;1.20;101107.00;;;;343284;28;82543;-92
2022/01/26 00:29:14;;;;;;;;;;;0.50;99.90;1.30;101108.00;;;;344816;28;82309;-91
2022/01/26 00:29:33;;;;;;;;;;;0.50;99.90;1.20;101109.00;;;;341596;28;90637;-92
2022/01/26 00:29:49;;;;;;;;;;;0.50;99.90;1.30;101117.00;;;;342015;28;83144;-93
2022/01/26 00:31:13;;;;;;;;;;;0.50;99.90;1.30;101113.00;;;;342921;28;90479;-91
2022/01/26 00:31:59;;;;;;;;;;;0.50;99.90;1.10;101113.00;;;;339564;28;92347;-92
2022/01/26 00:38:34;;;;;;;;;;;0.50;99.90;1.20;101114.00;;;;340320;28;90077;-91
2022/01/26 00:38:41;;;;;;;;;;;0.30;99.90;0.90;101118.00;;;;338873;28;91336;-92
2022/01/26 00:38:53;;;;;;;;;;;0.30;99.90;1.00;101114.00;;;;340466;28;82580;-92
2022/01/26 00:39:05;;;;;;;;;;;0.30;99.90;1.00;101120.00;;;;340175;28;90703;-92
2022/01/26 00:39:17;;;;;;;;;;;0.30;99.90;1.00;101117.00;;;;340630;28;82446;-92
2022/01/26 00:39:29;;;;;;;;;;;0.30;99.90;1.00;101114.00;;;;341061;28;91559;-92
2022/01/26 00:39:41;;;;;;;;;;;0.30;99.90;1.00;101115.00;;;;341869;28;83451;-92
2022/01/26 00:39:55;;;;;;;;;;;0.30;99.90;1.00;101121.00;;;;341430;28;91208;-91
2022/01/26 00:40:20;;;;;;;;;;;0.30;99.90;0.90;101123.00;;;;341903;28;83381;-91
2022/01/26 00:40:39;;;;;;;;;;;0.30;99.90;0.90;101118.00;;;;339127;28;89763;-91
2022/01/26 00:41:02;;;;;;;;;;;0.30;99.90;0.80;101123.00;;;;341642;28;82422;-91
2022/01/26 00:41:18;;;;;;;;;;;0.30;99.90;0.90;101117.00;;;;341501;28;90283;-92
2022/01/26 00:41:36;;;;;;;;;;;0.30;99.90;0.80;101121.00;;;;341818;28;83410;-92
2022/01/26 00:41:47;;;;;;;;;;;0.30;99.90;0.90;101122.00;;;;341554;28;91296;-92
2022/01/26 00:42:00;;;;;;;;;;;0.30;99.90;0.90;101116.00;;;;341907;28;83444;-92
2022/01/26 00:42:12;;;;;;;;;;;0.30;99.90;0.90;101119.00;;;;342722;28;90315;-92
2022/01/26 00:42:24;;;;;;;;;;;0.30;99.90;0.80;101114.00;;;;343212;28;83421;-92
2022/01/26 00:42:39;;;;;;;;;;;0.30;99.90;0.80;101116.00;;;;342272;28;94978;-91
2022/01/26 00:42:54;;;;;;;;;;;0.30;99.90;0.70;101119.00;;;;340288;28;83432;-92
2022/01/26 00:43:22;;;;;;;;;;;0.30;99.90;0.70;101117.00;;;;341488;28;91304;-92
2022/01/26 00:43:34;;;;;;;;;;;0.30;99.90;0.70;101113.00;;;;340398;28;83625;-92
2022/01/26 00:43:52;;;;;;;;;;;0.20;99.90;0.70;101114.00;;;;338839;28;90578;-92
2022/01/26 00:44:06;;;;;;;;;;;0.20;99.90;0.70;101115.00;;;;343173;28;82453;-91
2022/01/26 00:44:18;;;;;;;;;;;0.20;99.90;0.60;101113.00;;;;341355;28;91859;-92
2022/01/26 00:44:40;;;;;;;;;;;0.20;99.90;0.70;101123.00;;;;341828;28;83667;-92
2022/01/26 00:44:52;;;;;;;;;;;0.20;99.90;0.70;101114.00;;;;342871;28;90425;-92
2022/01/26 00:45:04;;;;;;;;;;;0.20;99.90;0.70;101118.00;;;;343343;28;83421;-92
2022/01/26 00:45:21;;;;;;;;;;;0.20;99.90;0.70;101113.00;;;;341475;28;92503;-91
2022/01/26 00:45:35;;;;;;;;;;;0.20;99.90;0.70;101112.00;;;;343848;28;82648;-91
2022/01/26 00:45:54;;;;;;;;;;;0.20;99.90;0.80;101111.00;;;;340231;28;91794;-92
2022/01/26 00:46:07;;;;;;;;;;;0.20;99.90;0.90;101117.00;;;;340600;28;82754;-91
2022/01/26 00:46:20;;;;;;;;;;;0.20;99.90;0.90;101122.00;;;;341557;28;91674;-92
2022/01/26 00:46:33;;;;;;;;;;;0.20;99.90;0.90;101116.00;;;;341168;28;82540;-91
2022/01/26 00:46:48;;;;;;;;;;;0.20;99.90;1.00;101116.00;;;;341478;28;91637;-91
2022/01/26 00:47:00;;;;;;;;;;;0.20;99.90;1.00;101115.00;;;;341683;28;83499;-92
2022/01/26 00:47:12;;;;;;;;;;;0.20;99.90;1.00;101117.00;;;;341465;28;91473;-92
2022/01/26 00:47:24;;;;;;;;;;;0.20;99.90;1.00;101122.00;;;;343407;28;82443;-92
2022/01/26 00:47:36;;;;;;;;;;;0.20;99.90;1.00;101119.00;;;;341428;28;88884;-92
2022/01/26 00:47:48;;;;;;;;;;;0.20;99.90;1.00;101114.00;;;;342025;28;83407;-92
2022/01/26 00:48:04;;;;;;;;;;;0.20;99.90;0.90;101115.00;;;;342652;28;91874;-91
2022/01/26 00:48:20;;;;;;;;;;;0.20;99.90;1.00;101120.00;;;;343180;28;82560;-92
2022/01/26 00:48:33;;;;;;;;;;;0.20;99.90;1.00;101121.00;;;;340357;28;91225;-91
2022/01/26 00:48:45;;;;;;;;;;;0.20;99.90;1.10;101112.00;;;;342233;28;83359;-92
2022/01/26 00:48:57;;;;;;;;;;;0.20;99.90;1.10;101114.00;;;;341406;28;90783;-92
2022/01/26 00:49:08;;;;;;;;;;;0.30;99.90;1.00;101111.00;;;;340616;28;82372;-90
2022/01/26 00:49:21;;;;;;;;;;;0.30;99.90;1.00;101113.00;;;;342889;28;90293;-92
2022/01/26 00:49:33;;;;;;;;;;;0.30;99.90;1.00;101118.00;;;;341735;28;83453;-91
2022/01/26 00:49:45;;;;;;;;;;;0.30;99.90;1.10;101112.00;;;;341263;28;92609;-92
2022/01/26 00:50:01;;;;;;;;;;;0.30;99.90;1.10;101109.00;;;;340595;28;82513;-92
2022/01/26 00:50:13;;;;;;;;;;;0.30;99.90;1.10;101112.00;;;;342866;28;89836;-91
2022/01/26 00:50:25;;;;;;;;;;;0.30;99.90;1.00;101108.00;;;;343222;28;83243;-91
2022/01/26 00:50:38;;;;;;;;;;;0.30;99.90;1.00;101117.00;;;;341532;28;91240;-91
2022/01/26 00:50:52;;;;;;;;;;;0.30;99.90;1.00;101115.00;;;;342108;28;82200;-92
2022/01/26 00:51:05;;;;;;;;;;;0.30;99.90;0.90;101114.00;;;;342858;28;91273;-91
2022/01/26 00:51:20;;;;;;;;;;;0.30;99.90;0.70;101109.00;;;;340643;28;83524;-90
2022/01/26 00:51:32;;;;;;;;;;;0.30;99.90;0.80;101114.00;;;;342756;28;91036;-92
2022/01/26 00:51:44;;;;;;;;;;;0.30;99.90;0.80;101103.00;;;;343353;28;83385;-92
2022/01/26 00:51:56;;;;;;;;;;;0.30;99.90;0.90;101117.00;;;;341494;28;90988;-91
2022/01/26 00:52:12;;;;;;;;;;;0.30;99.90;0.90;101113.00;;;;344748;28;82320;-92
2022/01/26 00:52:38;;;;;;;;;;;0.30;99.90;1.00;101117.00;;;;342864;28;90829;-92
2022/01/26 00:52:53;;;;;;;;;;;0.30;99.90;0.90;101110.00;;;;340580;28;83289;-92
2022/01/26 00:53:06;;;;;;;;;;;0.30;99.90;0.80;101106.00;;;;340277;28;90145;-92
2022/01/26 00:53:24;;;;;;;;;;;0.30;99.90;0.80;101105.00;;;;340469;28;83406;-92
2022/01/26 00:53:41;;;;;;;;;;;0.30;99.90;0.70;101109.00;;;;341529;28;91371;-91
2022/01/26 00:54:01;;;;;;;;;;;0.20;99.90;0.70;101109.00;;;;341990;28;83350;-91
2022/01/26 00:54:13;;;;;;;;;;;0.20;99.90;0.60;101109.00;;;;341440;28;90293;-91
2022/01/26 00:54:27;;;;;;;;;;;0.30;99.90;0.60;101109.00;;;;343369;28;82499;-91
2022/01/26 00:54:38;;;;;;;;;;;0.20;99.90;0.70;101110.00;;;;340704;28;90827;-92
2022/01/26 00:54:50;;;;;;;;;;;0.20;99.90;0.80;101110.00;;;;341778;28;82499;-92
2022/01/26 00:55:03;;;;;;;;;;;0.20;99.90;0.80;101106.00;;;;341391;28;91511;-92
2022/01/26 00:55:16;;;;;;;;;;;0.20;99.90;0.80;101115.00;;;;341869;28;84264;-92
2022/01/26 00:55:27;;;;;;;;;;;0.20;99.90;0.80;101105.00;;;;342780;28;90022;-92
2022/01/26 00:55:39;;;;;;;;;;;0.20;99.90;0.90;101109.00;;;;344556;28;83451;-92
2022/01/26 00:55:51;;;;;;;;;;;0.20;99.90;0.90;101102.00;;;;340220;28;91153;-91
2022/01/26 00:56:04;;;;;;;;;;;0.20;99.90;0.90;101112.00;;;;343331;28;83367;-92
2022/01/26 00:56:16;;;;;;;;;;;0.20;99.90;1.00;101107.00;;;;340094;28;90380;-92
2022/01/26 00:56:28;;;;;;;;;;;0.20;99.90;0.90;101118.00;;;;340598;28;83430;-92
2022/01/26 00:56:40;;;;;;;;;;;0.20;99.90;0.90;101110.00;;;;342692;28;92209;-92
2022/01/26 00:56:52;;;;;;;;;;;0.20;99.90;0.90;101112.00;;;;340492;28;83434;-92
2022/01/26 00:57:04;;;;;;;;;;;0.20;99.90;0.90;101113.00;;;;341523;28;91914;-92
2022/01/26 00:57:15;;;;;;;;;;;0.30;99.90;0.90;101114.00;;;;341919;28;83370;-91
2022/01/26 00:57:27;;;;;;;;;;;0.20;99.90;0.90;101117.00;;;;342796;28;88036;-91
2022/01/26 00:57:39;;;;;;;;;;;0.20;99.90;1.00;101111.00;;;;343185;28;83537;-91
2022/01/26 00:57:51;;;;;;;;;;;0.30;99.90;0.90;101112.00;;;;342979;28;90135;-92
2022/01/26 00:58:03;;;;;;;;;;;0.30;99.90;0.70;101109.00;;;;340637;28;83320;-92
2022/01/26 00:58:15;;;;;;;;;;;0.20;99.90;0.60;101111.00;;;;340165;28;91395;-91
2022/01/26 00:58:26;;;;;;;;;;;0.20;99.90;0.70;101104.00;;;;340624;28;83370;-91
2022/01/26 00:58:38;;;;;;;;;;;0.20;99.90;0.80;101107.00;;;;340111;28;93127;-91
2022/01/26 00:58:50;;;;;;;;;;;0.20;99.90;0.70;101108.00;;;;341827;28;83461;-92
2022/01/26 00:59:02;;;;;;;;;;;0.20;99.90;0.70;101106.00;;;;340251;28;90341;-92
2022/01/26 00:59:14;;;;;;;;;;;0.20;99.90;0.80;101102.00;;;;339307;28;82223;-91
2022/01/26 00:59:26;;;;;;;;;;;0.20;99.90;0.90;101102.00;;;;340162;28;89104;-92
2022/01/26 00:59:38;;;;;;;;;;;0.20;99.90;0.90;101108.00;;;;339100;28;83322;-91
2022/01/26 00:59:50;;;;;;;;;;;0.20;99.90;0.90;101107.00;;;;340165;28;92037;-92
2022/01/26 01:00:04;;;;;;;;;;;0.20;99.90;0.90;101101.00;;;;342075;28;82268;-92
2022/01/26 01:00:22;;;;;;;;;;;0.20;99.90;0.90;101109.00;;;;341580;28;90627;-92
2022/01/26 01:00:34;;;;;;;;;;;0.20;99.90;0.70;101104.00;;;;340487;28;83837;-92
2022/01/26 01:00:46;;;;;;;;;;;0.20;99.90;0.50;101109.00;;;;340075;28;92464;-92
2022/01/26 01:00:59;;;;;;;;;;;0.20;99.90;0.40;101104.00;;;;341966;28;82591;-92
2022/01/26 01:01:12;;;;;;;;;;;0.20;99.90;0.40;101101.00;;;;340126;28;91232;-91
2022/01/26 01:01:24;;;;;;;;;;;0.10;99.90;0.30;101107.00;;;;343323;28;83462;-92
2022/01/26 01:01:36;;;;;;;;;;;0.10;99.90;0.30;101109.00;;;;340135;28;91857;-91
2022/01/26 01:19:01;;;;;;;;;;;-0.30;99.90;0.60;101122.00;;;;341482;28;89219;-91
2022/01/26 01:19:31;;;;;;;;;;;-0.20;99.90;0.50;101122.00;;;;343396;28;82151;-92
2022/01/26 01:20:00;;;;;;;;;;;-0.20;99.90;0.50;101124.00;;;;341506;28;89307;-92
2022/01/26 01:20:36;;;;;;;;;;;-0.10;99.90;0.50;101123.00;;;;340398;28;83513;-91
2022/01/26 01:22:17;;;;;;;;;;;-0.10;99.90;0.60;101122.00;;;;341733;28;83399;-91
2022/01/26 01:22:57;;;;;;;;;;;-0.10;99.90;0.60;101120.00;;;;341541;28;91393;-92
2022/01/26 01:23:31;;;;;;;;;;;-0.10;99.90;0.50;101125.00;;;;343276;28;83251;-91
2022/01/26 01:24:26;;;;;;;;;;;-0.10;99.90;0.60;101127.00;;;;340624;28;83246;-92
2022/01/26 01:25:17;;;;;;;;;;;-0.10;99.90;0.70;101125.00;;;;340492;28;91174;-92
2022/01/26 01:28:09;;;;;;;;;;;-0.10;99.90;0.40;101128.00;;;;342736;28;91366;-92
2022/01/26 01:28:45;;;;;;;;;;;-0.10;99.90;0.50;101136.00;;;;341900;28;83316;-92
2022/01/26 01:29:47;;;;;;;;;;;-0.10;99.90;0.80;101138.00;;;;341933;28;82496;-91
2022/01/26 01:30:22;;;;;;;;;;;0.00;99.90;0.80;101125.00;;;;338815;28;91653;-91
2022/01/26 01:30:39;;;;;;;;;;;0.00;99.90;0.70;101124.00;;;;341823;28;83453;-91
2022/01/26 01:30:57;;;;;;;;;;;0.00;99.90;0.70;101123.00;;;;341357;28;91313;-92
2022/01/26 01:31:15;;;;;;;;;;;0.00;99.90;0.60;101127.00;;;;340642;28;83391;-92
2022/01/26 01:31:41;;;;;;;;;;;0.00;99.90;0.60;101129.00;;;;338771;28;90516;-92
2022/01/26 01:31:59;;;;;;;;;;;0.00;99.90;0.70;101134.00;;;;341782;28;83287;-92
2022/01/26 01:32:14;;;;;;;;;;;0.00;99.90;0.70;101122.00;;;;341234;28;92454;-92
2022/01/26 01:32:38;;;;;;;;;;;0.00;99.90;0.70;101130.00;;;;340578;28;82520;-92
2022/01/26 01:33:08;;;;;;;;;;;0.00;99.90;0.80;101130.00;;;;341292;28;91744;-92
2022/01/26 01:33:24;;;;;;;;;;;0.00;99.90;0.70;101135.00;;;;344649;28;83188;-91
2022/01/26 01:33:42;;;;;;;;;;;0.00;99.90;0.80;101129.00;;;;339810;28;90115;-92
2022/01/26 01:33:54;;;;;;;;;;;0.00;99.90;0.80;101130.00;;;;340509;28;83333;-92
2022/01/26 01:34:07;;;;;;;;;;;0.00;99.90;0.90;101128.00;;;;341512;28;91287;-91
2022/01/26 01:34:25;;;;;;;;;;;0.00;99.90;0.70;101137.00;;;;340588;28;83410;-92
2022/01/26 01:34:39;;;;;;;;;;;0.00;99.90;0.70;101125.00;;;;344159;28;90182;-92
2022/01/26 01:34:51;;;;;;;;;;;0.10;99.90;0.80;101126.00;;;;343185;28;82402;-92
2022/01/26 01:35:07;;;;;;;;;;;0.10;99.90;0.90;101125.00;;;;344199;28;91147;-91
2022/01/26 01:35:19;;;;;;;;;;;0.10;99.90;0.90;101135.00;;;;344628;28;83199;-92
2022/01/26 01:35:33;;;;;;;;;;;0.10;99.90;0.80;101131.00;;;;344282;28;88614;-91
2022/01/26 01:35:47;;;;;;;;;;;0.10;99.90;0.80;101132.00;;;;346284;28;82321;-91
2022/01/26 01:36:00;;;;;;;;;;;0.10;99.90;0.70;101132.00;;;;344183;28;90502;-91
2022/01/26 01:36:12;;;;;;;;;;;0.10;99.90;0.60;101132.00;;;;344630;28;82537;-91
2022/01/26 01:36:24;;;;;;;;;;;0.10;99.90;0.60;101140.00;;;;345507;28;92027;-91
2022/01/26 01:36:38;;;;;;;;;;;0.10;99.90;0.50;101139.00;;;;346504;28;82581;-92
2022/01/26 01:36:52;;;;;;;;;;;0.00;99.90;0.60;101132.00;;;;346750;28;90992;-92
2022/01/26 01:37:07;;;;;;;;;;;0.00;99.90;0.70;101144.00;;;;346177;28;82345;-92
2022/01/26 01:37:18;;;;;;;;;;;0.10;99.90;0.70;101139.00;;;;345494;28;92867;-92
2022/01/26 01:37:30;;;;;;;;;;;0.00;99.90;0.60;101131.00;;;;345999;28;83300;-92
2022/01/26 01:37:42;;;;;;;;;;;0.10;99.90;0.60;101131.00;;;;345552;28;90761;-92
2022/01/26 01:37:54;;;;;;;;;;;0.00;99.90;0.60;101137.00;;;;347587;28;83504;-92
2022/01/26 01:38:10;;;;;;;;;;;0.10;99.90;0.60;101139.00;;;;347297;28;90790;-91
2022/01/26 01:38:26;;;;;;;;;;;0.10;99.90;0.60;101139.00;;;;344895;28;83522;-92
2022/01/26 01:38:43;;;;;;;;;;;0.00;99.90;0.80;101141.00;;;;345663;28;89517;-92
2022/01/26 01:38:55;;;;;;;;;;;0.10;99.90;0.90;101137.00;;;;343543;28;82473;-92
2022/01/26 01:39:07;;;;;;;;;;;0.10;99.90;0.90;101139.00;;;;344563;28;91554;-92
2022/01/26 01:39:19;;;;;;;;;;;0.10;99.90;0.90;101138.00;;;;349008;27;83327;-92
2022/01/26 01:39:33;;;;;;;;;;;0.10;99.90;0.90;101137.00;;;;345586;28;91831;-92
2022/01/26 01:39:44;;;;;;;;;;;0.10;99.90;0.80;101134.00;;;;344835;28;83385;-92
2022/01/26 01:39:56;;;;;;;;;;;0.10;99.90;0.70;101143.00;;;;343164;28;91728;-92
2022/01/26 01:40:09;;;;;;;;;;;0.10;99.90;0.80;101141.00;;;;343573;28;82452;-92
2022/01/26 01:40:20;;;;;;;;;;;0.10;99.90;0.80;101139.00;;;;344399;28;91940;-91
2022/01/26 01:40:33;;;;;;;;;;;0.10;99.90;0.90;101142.00;;;;346317;28;83363;-91
2022/01/26 01:40:49;;;;;;;;;;;0.10;99.90;0.70;101148.00;;;;344508;28;90115;-92
2022/01/26 01:41:01;;;;;;;;;;;0.10;99.90;0.50;101142.00;;;;343493;28;83413;-92
2022/01/26 01:41:13;;;;;;;;;;;0.10;99.90;0.70;101137.00;;;;343140;28;91715;-92
2022/01/26 01:41:24;;;;;;;;;;;0.10;99.90;0.60;101143.00;;;;343438;28;83448;-91
2022/01/26 01:41:37;;;;;;;;;;;0.10;99.90;0.70;101137.00;;;;345784;28;92128;-92
2022/01/26 01:41:50;;;;;;;;;;;0.10;99.90;0.60;101141.00;;;;345008;28;82631;-92
2022/01/26 01:42:03;;;;;;;;;;;0.10;99.90;0.60;101140.00;;;;345718;28;91210;-91
2022/01/26 01:42:15;;;;;;;;;;;0.10;99.90;0.70;101133.00;;;;346199;28;82345;-92
2022/01/26 01:42:26;;;;;;;;;;;0.10;99.90;0.70;101138.00;;;;344619;28;89795;-92
2022/01/26 01:42:38;;;;;;;;;;;0.10;99.90;0.70;101148.00;;;;347463;28;82559;-92
2022/01/26 01:42:50;;;;;;;;;;;0.10;99.90;0.80;101131.00;;;;347171;28;92161;-91
2022/01/26 01:43:03;;;;;;;;;;;0.10;99.90;0.90;101133.00;;;;344878;28;83225;-91
2022/01/26 01:43:16;;;;;;;;;;;0.10;99.90;0.90;101142.00;;;;345864;28;91718;-90
2022/01/26 01:43:27;;;;;;;;;;;0.10;99.90;0.90;101142.00;;;;346221;28;83211;-92
2022/01/26 01:43:40;;;;;;;;;;;0.10;99.90;0.90;101143.00;;;;345861;28;91288;-92
2022/01/26 01:43:52;;;;;;;;;;;0.20;99.90;0.70;101143.00;;;;347716;28;83260;-92
2022/01/26 01:44:04;;;;;;;;;;;0.10;99.90;0.70;101141.00;;;;345834;28;91260;-92
2022/01/26 01:44:16;;;;;;;;;;;0.10;99.90;0.80;101137.00;;;;347311;27;83410;-91
2022/01/26 01:44:28;;;;;;;;;;;0.10;99.90;0.90;101145.00;;;;350158;27;91900;-92
2022/01/26 01:44:40;;;;;;;;;;;0.10;99.90;0.90;101140.00;;;;346255;28;83185;-91
2022/01/26 01:44:52;;;;;;;;;;;0.10;99.90;0.80;101135.00;;;;345754;28;91820;-92
2022/01/26 01:45:05;;;;;;;;;;;0.20;99.90;0.90;101142.00;;;;346238;28;83448;-91
2022/01/26 01:45:16;;;;;;;;;;;0.20;99.90;0.80;101137.00;;;;344452;28;90332;-92
2022/01/26 01:45:30;;;;;;;;;;;0.20;99.90;0.80;101133.00;;;;343527;28;83377;-91
2022/01/26 01:45:46;;;;;;;;;;;0.20;99.90;0.60;101146.00;;;;345759;28;92153;-91
2022/01/26 01:45:57;;;;;;;;;;;0.20;99.90;0.60;101139.00;;;;346267;28;83358;-91
2022/01/26 01:46:09;;;;;;;;;;;0.10;99.90;0.60;101139.00;;;;345823;28;91221;-92
2022/01/26 01:46:21;;;;;;;;;;;0.10;99.90;0.70;101137.00;;;;349061;27;83489;-91
2022/01/26 01:46:34;;;;;;;;;;;0.10;99.90;0.50;101141.00;;;;344474;28;90693;-92
2022/01/26 01:46:46;;;;;;;;;;;0.10;99.90;0.40;101142.00;;;;343440;28;83366;-91
2022/01/26 01:46:58;;;;;;;;;;;0.10;99.90;0.50;101137.00;;;;348609;27;89940;-92
2022/01/26 01:47:09;;;;;;;;;;;0.10;99.90;0.60;101146.00;;;;344909;28;82313;-91
2022/01/26 01:47:21;;;;;;;;;;;0.10;99.90;0.50;101141.00;;;;345790;28;91993;-92
2022/01/26 01:47:33;;;;;;;;;;;0.10;99.90;0.50;101141.00;;;;347616;28;83289;-92
2022/01/26 01:47:45;;;;;;;;;;;0.10;99.90;0.30;101137.00;;;;347192;28;92221;-92
2022/01/26 01:47:57;;;;;;;;;;;0.00;99.90;0.30;101140.00;;;;347617;28;83369;-91
2022/01/26 01:48:09;;;;;;;;;;;0.00;99.90;0.20;101137.00;;;;345890;28;90220;-91
2022/01/26 01:48:27;;;;;;;;;;;0.00;99.90;0.30;101142.00;;;;346211;28;83371;-91
2022/01/26 01:48:40;;;;;;;;;;;-0.10;99.90;0.30;101138.00;;;;347250;28;90976;-92
2022/01/26 01:48:51;;;;;;;;;;;-0.10;99.90;0.30;101136.00;;;;343450;28;83523;-91
2022/01/26 01:49:04;;;;;;;;;;;-0.10;99.90;0.50;101144.00;;;;344451;28;91450;-91
2022/01/26 01:49:16;;;;;;;;;;;-0.10;99.90;0.30;101143.00;;;;346280;28;83244;-91
2022/01/26 01:49:28;;;;;;;;;;;-0.10;99.90;0.20;101148.00;;;;345774;28;91480;-92
2022/01/26 01:49:40;;;;;;;;;;;-0.10;99.90;0.20;101139.00;;;;346283;28;83109;-91
2022/01/26 01:49:52;;;;;;;;;;;-0.10;99.90;0.10;101141.00;;;;343075;28;92651;-91
2022/01/26 01:50:09;;;;;;;;;;;-0.20;99.90;0.10;101145.00;;;;344886;28;83248;-91
2022/01/26 01:50:21;;;;;;;;;;;-0.20;99.90;0.20;101137.00;;;;344442;28;90616;-92
2022/01/26 01:50:38;;;;;;;;;;;-0.20;99.90;0.30;101139.00;;;;346305;28;83266;-91
2022/01/26 01:50:51;;;;;;;;;;;-0.20;99.90;0.40;101135.00;;;;343008;28;91937;-91
2022/01/26 01:51:06;;;;;;;;;;;-0.20;99.90;0.30;101146.00;;;;346316;28;83401;-91
2022/01/26 01:51:19;;;;;;;;;;;-0.20;99.90;0.40;101136.00;;;;345953;28;91794;-91
2022/01/26 01:51:36;;;;;;;;;;;-0.20;99.90;0.50;101136.00;;;;344829;28;83361;-91
2022/01/26 01:52:01;;;;;;;;;;;-0.20;99.90;0.50;101146.00;;;;344463;28;91173;-92
2022/01/26 01:52:15;;;;;;;;;;;-0.20;99.90;0.50;101138.00;;;;343442;28;82590;-91
2022/01/26 01:52:27;;;;;;;;;;;-0.20;99.90;0.60;101144.00;;;;343145;28;89838;-92
2022/01/26 01:52:39;;;;;;;;;;;-0.20;99.90;0.60;101140.00;;;;343565;28;83330;-91
2022/01/26 01:52:58;;;;;;;;;;;-0.20;99.90;0.40;101145.00;;;;342982;28;91187;-92
2022/01/26 01:53:11;;;;;;;;;;;-0.20;99.90;0.30;101153.00;;;;346247;28;83406;-91
2022/01/26 01:53:31;;;;;;;;;;;-0.20;99.90;0.40;101131.00;;;;343144;28;91309;-91
2022/01/26 01:53:44;;;;;;;;;;;-0.20;99.90;0.40;101138.00;;;;344996;28;83341;-91
2022/01/26 01:53:56;;;;;;;;;;;-0.20;99.90;0.50;101144.00;;;;344431;28;91961;-92